sensor_id;sensor_type;location;lat;lon;timestamp;temperature;humidity
39777;DHT22;25453;48.162;14.510;2023-01-25T00:02:05;5.30;77.70
39777;DHT22;25453;48.162;14.510;2023-01-25T00:04:32;5.30;77.70
39777;DHT22;25453;48.162;14.510;2023-01-25T00:06:59;5.30;77.70
39777;DHT22;25453;48.162;14.510;2023-01-25T00:09:26;5.30;77.70
39777;DHT22;25453;48.162;14.510;2023-01-25T00:11:53;5.30;77.60
39777;DHT22;25453;48.162;14.510;2023-01-25T00:14:22;5.20;77.40
39777;DHT22;25453;48.162;14.510;2023-01-25T00:16:49;5.20;77.50
39777;DHT22;25453;48.162;14.510;2023-01-25T00:19:16;5.20;77.60
39777;DHT22;25453;48.162;14.510;2023-01-25T00:21:43;5.20;77.60
39777;DHT22;25453;48.162;14.510;2023-01-25T00:24:10;5.20;77.60
39777;DHT22;25453;48.162;14.510;2023-01-25T00:26:37;5.20;77.60
39777;DHT22;25453;48.162;14.510;2023-01-25T00:29:05;5.20;77.60
39777;DHT22;25453;48.162;14.510;2023-01-25T00:36:51;5.20;77.60
39777;DHT22;25453;48.162;14.510;2023-01-25T00:39:20;5.30;77.50
39777;DHT22;25453;48.162;14.510;2023-01-25T00:41:47;5.30;77.40
39777;DHT22;25453;48.162;14.510;2023-01-25T00:44:14;5.30;77.40
39777;DHT22;25453;48.162;14.510;2023-01-25T00:46:41;5.30;77.30
39777;DHT22;25453;48.162;14.510;2023-01-25T00:52:04;5.30;77.20
39777;DHT22;25453;48.162;14.510;2023-01-25T00:54:31;5.30;77.20
39777;DHT22;25453;48.162;14.510;2023-01-25T00:56:58;5.30;77.10
39777;DHT22;25453;48.162;14.510;2023-01-25T00:59:25;5.30;77.00
39777;DHT22;25453;48.162;14.510;2023-01-25T01:01:52;5.30;76.90
39777;DHT22;25453;48.162;14.510;2023-01-25T01:04:20;5.30;76.90
39777;DHT22;25453;48.162;14.510;2023-01-25T01:06:51;5.30;76.90
39777;DHT22;25453;48.162;14.510;2023-01-25T01:09:19;5.30;76.80
39777;DHT22;25453;48.162;14.510;2023-01-25T01:11:46;5.30;76.80
39777;DHT22;25453;48.162;14.510;2023-01-25T01:14:13;5.30;76.70
39777;DHT22;25453;48.162;14.510;2023-01-25T01:16:40;5.30;76.70
39777;DHT22;25453;48.162;14.510;2023-01-25T01:19:08;5.30;76.60
39777;DHT22;25453;48.162;14.510;2023-01-25T01:21:35;5.30;76.60
39777;DHT22;25453;48.162;14.510;2023-01-25T01:24:02;5.30;76.60
39777;DHT22;25453;48.162;14.510;2023-01-25T01:26:29;5.30;76.60
39777;DHT22;25453;48.162;14.510;2023-01-25T01:28:56;5.30;76.60
39777;DHT22;25453;48.162;14.510;2023-01-25T01:31:24;5.30;76.50
39777;DHT22;25453;48.162;14.510;2023-01-25T01:33:51;5.30;76.50
39777;DHT22;25453;48.162;14.510;2023-01-25T01:36:19;5.30;76.40
39777;DHT22;25453;48.162;14.510;2023-01-25T01:38:47;5.30;76.40
39777;DHT22;25453;48.162;14.510;2023-01-25T01:41:14;5.30;76.40
39777;DHT22;25453;48.162;14.510;2023-01-25T01:43:42;5.30;76.40
39777;DHT22;25453;48.162;14.510;2023-01-25T01:48:37;5.30;76.50
39777;DHT22;25453;48.162;14.510;2023-01-25T01:53:39;5.30;76.30
39777;DHT22;25453;48.162;14.510;2023-01-25T01:56:08;5.30;76.30
39777;DHT22;25453;48.162;14.510;2023-01-25T01:58:36;5.30;76.30
39777;DHT22;25453;48.162;14.510;2023-01-25T02:01:04;5.30;76.20
39777;DHT22;25453;48.162;14.510;2023-01-25T02:03:31;5.30;76.20
39777;DHT22;25453;48.162;14.510;2023-01-25T02:08:32;5.30;76.10
39777;DHT22;25453;48.162;14.510;2023-01-25T02:11:02;5.30;76.20
39777;DHT22;25453;48.162;14.510;2023-01-25T02:13:30;5.30;76.20
39777;DHT22;25453;48.162;14.510;2023-01-25T02:15:57;5.30;76.20
39777;DHT22;25453;48.162;14.510;2023-01-25T02:18:24;5.30;76.10
39777;DHT22;25453;48.162;14.510;2023-01-25T02:20:53;5.30;76.00
39777;DHT22;25453;48.162;14.510;2023-01-25T02:25:47;5.30;75.90
39777;DHT22;25453;48.162;14.510;2023-01-25T02:28:22;5.30;76.00
39777;DHT22;25453;48.162;14.510;2023-01-25T02:30:50;5.30;76.00
39777;DHT22;25453;48.162;14.510;2023-01-25T02:33:17;5.30;75.90
39777;DHT22;25453;48.162;14.510;2023-01-25T02:35:48;5.30;75.60
39777;DHT22;25453;48.162;14.510;2023-01-25T02:38:17;5.30;75.60
39777;DHT22;25453;48.162;14.510;2023-01-25T02:40:46;5.30;75.60
39777;DHT22;25453;48.162;14.510;2023-01-25T02:43:14;5.30;75.60
39777;DHT22;25453;48.162;14.510;2023-01-25T02:45:42;5.20;75.50
39777;DHT22;25453;48.162;14.510;2023-01-25T02:48:10;5.20;75.60
39777;DHT22;25453;48.162;14.510;2023-01-25T02:50:37;5.30;75.60
39777;DHT22;25453;48.162;14.510;2023-01-25T02:53:04;5.30;75.60
39777;DHT22;25453;48.162;14.510;2023-01-25T02:55:30;5.30;75.50
39777;DHT22;25453;48.162;14.510;2023-01-25T02:57:57;5.30;75.50
39777;DHT22;25453;48.162;14.510;2023-01-25T03:00:24;5.30;75.10
39777;DHT22;25453;48.162;14.510;2023-01-25T03:02:51;5.20;75.20
39777;DHT22;25453;48.162;14.510;2023-01-25T03:05:18;5.20;75.30
39777;DHT22;25453;48.162;14.510;2023-01-25T03:07:45;5.20;75.20
39777;DHT22;25453;48.162;14.510;2023-01-25T03:10:12;5.20;75.30
39777;DHT22;25453;48.162;14.510;2023-01-25T03:12:39;5.20;75.30
39777;DHT22;25453;48.162;14.510;2023-01-25T03:15:06;5.20;75.40
39777;DHT22;25453;48.162;14.510;2023-01-25T03:17:34;5.20;75.40
39777;DHT22;25453;48.162;14.510;2023-01-25T03:20:01;5.20;75.40
39777;DHT22;25453;48.162;14.510;2023-01-25T03:22:28;5.20;75.40
39777;DHT22;25453;48.162;14.510;2023-01-25T03:24:54;5.20;75.20
39777;DHT22;25453;48.162;14.510;2023-01-25T03:27:22;5.20;75.20
39777;DHT22;25453;48.162;14.510;2023-01-25T03:29:49;5.20;75.20
39777;DHT22;25453;48.162;14.510;2023-01-25T03:32:16;5.20;75.10
39777;DHT22;25453;48.162;14.510;2023-01-25T03:34:43;5.20;75.00
39777;DHT22;25453;48.162;14.510;2023-01-25T03:37:10;5.20;74.80
39777;DHT22;25453;48.162;14.510;2023-01-25T03:39:37;5.20;74.90
39777;DHT22;25453;48.162;14.510;2023-01-25T03:42:04;5.20;75.00
39777;DHT22;25453;48.162;14.510;2023-01-25T03:44:31;5.20;75.00
39777;DHT22;25453;48.162;14.510;2023-01-25T03:46:58;5.20;75.00
39777;DHT22;25453;48.162;14.510;2023-01-25T03:49:25;5.20;75.10
39777;DHT22;25453;48.162;14.510;2023-01-25T03:51:53;5.20;75.00
39777;DHT22;25453;48.162;14.510;2023-01-25T03:54:20;5.20;74.90
39777;DHT22;25453;48.162;14.510;2023-01-25T03:56:47;5.20;74.80
39777;DHT22;25453;48.162;14.510;2023-01-25T03:59:14;5.20;74.90
39777;DHT22;25453;48.162;14.510;2023-01-25T04:01:41;5.20;74.70
39777;DHT22;25453;48.162;14.510;2023-01-25T04:04:08;5.20;74.10
39777;DHT22;25453;48.162;14.510;2023-01-25T04:06:35;5.20;73.90
39777;DHT22;25453;48.162;14.510;2023-01-25T04:09:02;5.10;73.90
39777;DHT22;25453;48.162;14.510;2023-01-25T04:11:29;5.10;73.70
39777;DHT22;25453;48.162;14.510;2023-01-25T04:13:56;5.00;73.90
39777;DHT22;25453;48.162;14.510;2023-01-25T04:16:23;5.00;74.20
39777;DHT22;25453;48.162;14.510;2023-01-25T04:18:50;5.00;74.30
39777;DHT22;25453;48.162;14.510;2023-01-25T04:21:17;5.00;74.20
39777;DHT22;25453;48.162;14.510;2023-01-25T04:23:44;5.00;74.20
39777;DHT22;25453;48.162;14.510;2023-01-25T04:26:11;5.00;74.10
39777;DHT22;25453;48.162;14.510;2023-01-25T04:28:39;5.00;74.30
39777;DHT22;25453;48.162;14.510;2023-01-25T04:31:06;5.00;74.10
39777;DHT22;25453;48.162;14.510;2023-01-25T04:33:33;5.00;74.10
39777;DHT22;25453;48.162;14.510;2023-01-25T04:36:00;5.10;74.10
39777;DHT22;25453;48.162;14.510;2023-01-25T04:38:27;5.10;74.10
39777;DHT22;25453;48.162;14.510;2023-01-25T04:40:54;5.10;74.00
39777;DHT22;25453;48.162;14.510;2023-01-25T04:43:21;5.10;74.00
39777;DHT22;25453;48.162;14.510;2023-01-25T04:45:48;5.10;73.90
39777;DHT22;25453;48.162;14.510;2023-01-25T04:48:15;5.10;73.80
39777;DHT22;25453;48.162;14.510;2023-01-25T04:50:42;5.10;73.80
39777;DHT22;25453;48.162;14.510;2023-01-25T04:53:09;5.10;73.80
39777;DHT22;25453;48.162;14.510;2023-01-25T04:55:36;5.10;73.80
39777;DHT22;25453;48.162;14.510;2023-01-25T04:58:04;5.10;73.80
39777;DHT22;25453;48.162;14.510;2023-01-25T05:00:31;5.10;73.90
39777;DHT22;25453;48.162;14.510;2023-01-25T05:02:58;5.10;73.80
39777;DHT22;25453;48.162;14.510;2023-01-25T05:05:25;5.10;73.70
39777;DHT22;25453;48.162;14.510;2023-01-25T05:07:52;5.10;73.70
39777;DHT22;25453;48.162;14.510;2023-01-25T05:10:21;5.10;73.50
39777;DHT22;25453;48.162;14.510;2023-01-25T05:12:47;5.10;73.40
39777;DHT22;25453;48.162;14.510;2023-01-25T05:15:14;5.10;73.40
39777;DHT22;25453;48.162;14.510;2023-01-25T05:17:41;5.10;73.50
39777;DHT22;25453;48.162;14.510;2023-01-25T05:20:08;5.10;73.50
39777;DHT22;25453;48.162;14.510;2023-01-25T05:22:36;5.10;73.50
39777;DHT22;25453;48.162;14.510;2023-01-25T05:25:03;5.10;73.50
39777;DHT22;25453;48.162;14.510;2023-01-25T05:27:32;5.10;73.60
39777;DHT22;25453;48.162;14.510;2023-01-25T05:29:58;5.10;73.60
39777;DHT22;25453;48.162;14.510;2023-01-25T05:32:26;5.10;73.60
39777;DHT22;25453;48.162;14.510;2023-01-25T05:34:52;5.10;73.30
39777;DHT22;25453;48.162;14.510;2023-01-25T05:37:20;5.10;73.20
39777;DHT22;25453;48.162;14.510;2023-01-25T05:39:47;5.10;73.20
39777;DHT22;25453;48.162;14.510;2023-01-25T05:42:16;5.10;73.30
39777;DHT22;25453;48.162;14.510;2023-01-25T05:44:43;5.10;73.30
39777;DHT22;25453;48.162;14.510;2023-01-25T05:47:14;5.10;73.30
39777;DHT22;25453;48.162;14.510;2023-01-25T05:49:41;5.10;73.40
39777;DHT22;25453;48.162;14.510;2023-01-25T05:52:12;5.10;73.40
39777;DHT22;25453;48.162;14.510;2023-01-25T05:54:39;5.10;73.40
39777;DHT22;25453;48.162;14.510;2023-01-25T05:57:06;5.10;73.30
39777;DHT22;25453;48.162;14.510;2023-01-25T05:59:33;5.10;72.90
39777;DHT22;25453;48.162;14.510;2023-01-25T06:02:00;5.10;72.90
39777;DHT22;25453;48.162;14.510;2023-01-25T06:04:27;5.10;72.90
39777;DHT22;25453;48.162;14.510;2023-01-25T06:06:54;5.00;72.90
39777;DHT22;25453;48.162;14.510;2023-01-25T06:09:21;5.00;73.00
39777;DHT22;25453;48.162;14.510;2023-01-25T06:11:49;5.00;73.30
39777;DHT22;25453;48.162;14.510;2023-01-25T06:14:16;5.00;73.10
39777;DHT22;25453;48.162;14.510;2023-01-25T06:16:43;5.00;73.10
39777;DHT22;25453;48.162;14.510;2023-01-25T06:19:11;5.00;73.00
39777;DHT22;25453;48.162;14.510;2023-01-25T06:21:38;5.00;73.10
39777;DHT22;25453;48.162;14.510;2023-01-25T06:24:05;5.00;73.10
39777;DHT22;25453;48.162;14.510;2023-01-25T06:26:33;5.00;73.20
39777;DHT22;25453;48.162;14.510;2023-01-25T06:28:59;5.00;73.30
39777;DHT22;25453;48.162;14.510;2023-01-25T06:31:26;5.00;73.40
39777;DHT22;25453;48.162;14.510;2023-01-25T06:33:53;5.10;73.40
39777;DHT22;25453;48.162;14.510;2023-01-25T06:36:21;5.10;73.30
39777;DHT22;25453;48.162;14.510;2023-01-25T06:38:49;5.10;73.20
39777;DHT22;25453;48.162;14.510;2023-01-25T06:41:16;5.10;73.30
39777;DHT22;25453;48.162;14.510;2023-01-25T06:43:44;5.10;73.30
39777;DHT22;25453;48.162;14.510;2023-01-25T06:46:11;5.10;73.40
39777;DHT22;25453;48.162;14.510;2023-01-25T06:48:38;5.10;73.50
39777;DHT22;25453;48.162;14.510;2023-01-25T06:51:07;5.10;73.50
39777;DHT22;25453;48.162;14.510;2023-01-25T06:53:35;5.10;73.40
39777;DHT22;25453;48.162;14.510;2023-01-25T06:56:04;5.10;73.50
39777;DHT22;25453;48.162;14.510;2023-01-25T06:58:31;5.20;73.50
39777;DHT22;25453;48.162;14.510;2023-01-25T07:01:02;5.20;73.50
39777;DHT22;25453;48.162;14.510;2023-01-25T07:03:29;5.20;73.40
39777;DHT22;25453;48.162;14.510;2023-01-25T07:05:57;5.20;73.40
39777;DHT22;25453;48.162;14.510;2023-01-25T07:08:25;5.20;73.30
39777;DHT22;25453;48.162;14.510;2023-01-25T07:10:53;5.20;73.20
39777;DHT22;25453;48.162;14.510;2023-01-25T07:13:20;5.10;73.00
39777;DHT22;25453;48.162;14.510;2023-01-25T07:15:56;5.10;73.10
39777;DHT22;25453;48.162;14.510;2023-01-25T07:18:24;5.10;73.20
39777;DHT22;25453;48.162;14.510;2023-01-25T07:20:52;5.10;73.40
39777;DHT22;25453;48.162;14.510;2023-01-25T07:23:19;5.10;73.40
39777;DHT22;25453;48.162;14.510;2023-01-25T07:25:46;5.10;73.40
39777;DHT22;25453;48.162;14.510;2023-01-25T07:28:14;5.10;73.40
39777;DHT22;25453;48.162;14.510;2023-01-25T07:30:42;5.10;73.30
39777;DHT22;25453;48.162;14.510;2023-01-25T07:33:09;5.10;73.30
39777;DHT22;25453;48.162;14.510;2023-01-25T07:35:36;5.10;73.50
39777;DHT22;25453;48.162;14.510;2023-01-25T07:38:03;5.20;73.40
39777;DHT22;25453;48.162;14.510;2023-01-25T07:40:30;5.20;73.20
39777;DHT22;25453;48.162;14.510;2023-01-25T07:42:57;5.10;73.10
39777;DHT22;25453;48.162;14.510;2023-01-25T07:45:24;5.10;73.10
39777;DHT22;25453;48.162;14.510;2023-01-25T07:47:56;5.10;73.10
39777;DHT22;25453;48.162;14.510;2023-01-25T07:50:27;5.10;73.30
39777;DHT22;25453;48.162;14.510;2023-01-25T07:52:54;5.10;73.30
39777;DHT22;25453;48.162;14.510;2023-01-25T07:55:21;5.10;73.20
39777;DHT22;25453;48.162;14.510;2023-01-25T07:57:48;5.10;73.20
39777;DHT22;25453;48.162;14.510;2023-01-25T08:00:20;5.10;73.30
39777;DHT22;25453;48.162;14.510;2023-01-25T08:02:50;5.10;73.20
39777;DHT22;25453;48.162;14.510;2023-01-25T08:05:17;5.10;73.30
39777;DHT22;25453;48.162;14.510;2023-01-25T08:07:44;5.10;73.30
39777;DHT22;25453;48.162;14.510;2023-01-25T08:10:11;5.10;73.20
39777;DHT22;25453;48.162;14.510;2023-01-25T08:12:38;5.10;73.10
39777;DHT22;25453;48.162;14.510;2023-01-25T08:15:05;5.10;73.10
39777;DHT22;25453;48.162;14.510;2023-01-25T08:17:34;5.10;73.20
39777;DHT22;25453;48.162;14.510;2023-01-25T08:20:01;5.10;73.20
39777;DHT22;25453;48.162;14.510;2023-01-25T08:22:28;5.10;73.30
39777;DHT22;25453;48.162;14.510;2023-01-25T08:24:55;5.10;73.20
39777;DHT22;25453;48.162;14.510;2023-01-25T08:27:22;5.10;73.20
39777;DHT22;25453;48.162;14.510;2023-01-25T08:29:49;5.10;73.10
39777;DHT22;25453;48.162;14.510;2023-01-25T08:32:16;5.10;73.10
39777;DHT22;25453;48.162;14.510;2023-01-25T08:34:43;5.10;73.20
39777;DHT22;25453;48.162;14.510;2023-01-25T08:37:10;5.10;73.10
39777;DHT22;25453;48.162;14.510;2023-01-25T08:39:37;5.10;73.00
39777;DHT22;25453;48.162;14.510;2023-01-25T08:42:04;5.10;73.10
39777;DHT22;25453;48.162;14.510;2023-01-25T08:44:32;5.20;73.10
39777;DHT22;25453;48.162;14.510;2023-01-25T08:46:59;5.20;73.10
39777;DHT22;25453;48.162;14.510;2023-01-25T08:49:25;5.10;72.90
39777;DHT22;25453;48.162;14.510;2023-01-25T08:51:53;5.10;72.90
39777;DHT22;25453;48.162;14.510;2023-01-25T08:54:20;5.10;72.80
39777;DHT22;25453;48.162;14.510;2023-01-25T08:56:47;5.10;73.10
39777;DHT22;25453;48.162;14.510;2023-01-25T08:59:14;5.10;73.00
39777;DHT22;25453;48.162;14.510;2023-01-25T09:01:41;5.10;73.00
39777;DHT22;25453;48.162;14.510;2023-01-25T09:04:08;5.10;72.80
39777;DHT22;25453;48.162;14.510;2023-01-25T09:06:35;5.10;72.80
39777;DHT22;25453;48.162;14.510;2023-01-25T09:09:02;5.10;72.90
39777;DHT22;25453;48.162;14.510;2023-01-25T09:11:31;5.10;73.00
39777;DHT22;25453;48.162;14.510;2023-01-25T09:13:59;5.10;73.10
39777;DHT22;25453;48.162;14.510;2023-01-25T09:16:26;5.10;72.50
39777;DHT22;25453;48.162;14.510;2023-01-25T09:19:00;5.00;72.50
39777;DHT22;25453;48.162;14.510;2023-01-25T09:21:27;5.00;72.70
39777;DHT22;25453;48.162;14.510;2023-01-25T09:23:55;5.00;73.00
39777;DHT22;25453;48.162;14.510;2023-01-25T09:26:32;5.00;72.80
39777;DHT22;25453;48.162;14.510;2023-01-25T09:29:02;5.00;72.90
39777;DHT22;25453;48.162;14.510;2023-01-25T09:31:29;5.00;73.00
39777;DHT22;25453;48.162;14.510;2023-01-25T09:33:56;5.00;73.00
39777;DHT22;25453;48.162;14.510;2023-01-25T09:36:24;5.00;73.10
39777;DHT22;25453;48.162;14.510;2023-01-25T09:38:51;5.10;73.10
39777;DHT22;25453;48.162;14.510;2023-01-25T09:46:42;5.10;73.10
39777;DHT22;25453;48.162;14.510;2023-01-25T09:51:57;5.20;73.00
39777;DHT22;25453;48.162;14.510;2023-01-25T09:54:26;5.20;73.00
39777;DHT22;25453;48.162;14.510;2023-01-25T09:56:57;5.20;72.90
39777;DHT22;25453;48.162;14.510;2023-01-25T09:59:25;5.20;72.80
39777;DHT22;25453;48.162;14.510;2023-01-25T10:01:56;5.10;72.70
39777;DHT22;25453;48.162;14.510;2023-01-25T10:04:27;5.10;72.70
39777;DHT22;25453;48.162;14.510;2023-01-25T10:06:56;5.10;72.50
39777;DHT22;25453;48.162;14.510;2023-01-25T10:12:04;5.00;72.70
39777;DHT22;25453;48.162;14.510;2023-01-25T10:14:31;5.00;72.90
39777;DHT22;25453;48.162;14.510;2023-01-25T10:17:03;5.00;73.00
39777;DHT22;25453;48.162;14.510;2023-01-25T10:22:26;5.00;72.90
39777;DHT22;25453;48.162;14.510;2023-01-25T10:29:58;4.90;72.20
39777;DHT22;25453;48.162;14.510;2023-01-25T10:32:29;4.80;72.30
39777;DHT22;25453;48.162;14.510;2023-01-25T10:35:27;4.80;72.40
39777;DHT22;25453;48.162;14.510;2023-01-25T10:38:06;4.70;72.50
39777;DHT22;25453;48.162;14.510;2023-01-25T10:40:40;4.70;72.40
39777;DHT22;25453;48.162;14.510;2023-01-25T10:43:14;4.60;72.80
39777;DHT22;25453;48.162;14.510;2023-01-25T10:45:42;4.70;72.90
39777;DHT22;25453;48.162;14.510;2023-01-25T10:48:12;4.70;73.10
39777;DHT22;25453;48.162;14.510;2023-01-25T10:58:40;4.80;73.40
39777;DHT22;25453;48.162;14.510;2023-01-25T11:01:09;4.80;73.40
39777;DHT22;25453;48.162;14.510;2023-01-25T11:03:39;4.90;73.50
39777;DHT22;25453;48.162;14.510;2023-01-25T11:06:07;4.90;73.30
39777;DHT22;25453;48.162;14.510;2023-01-25T11:08:38;4.90;73.30
39777;DHT22;25453;48.162;14.510;2023-01-25T11:11:30;5.00;73.30
39777;DHT22;25453;48.162;14.510;2023-01-25T11:13:52;5.00;73.40
39777;DHT22;25453;48.162;14.510;2023-01-25T11:18:53;5.10;73.20
39777;DHT22;25453;48.162;14.510;2023-01-25T11:21:21;5.10;73.20
39777;DHT22;25453;48.162;14.510;2023-01-25T11:26:24;5.10;73.10
39777;DHT22;25453;48.162;14.510;2023-01-25T11:28:58;5.20;72.90
39777;DHT22;25453;48.162;14.510;2023-01-25T11:31:31;5.20;72.90
39777;DHT22;25453;48.162;14.510;2023-01-25T11:33:59;5.20;73.00
39777;DHT22;25453;48.162;14.510;2023-01-25T11:41:28;5.20;72.50
39777;DHT22;25453;48.162;14.510;2023-01-25T11:44:05;5.20;72.10
39777;DHT22;25453;48.162;14.510;2023-01-25T11:52:01;5.10;72.40
39777;DHT22;25453;48.162;14.510;2023-01-25T11:57:11;5.10;72.40
39777;DHT22;25453;48.162;14.510;2023-01-25T12:10:19;5.10;72.30
39777;DHT22;25453;48.162;14.510;2023-01-25T12:12:54;5.10;72.00
39777;DHT22;25453;48.162;14.510;2023-01-25T12:30:57;5.10;72.60
39777;DHT22;25453;48.162;14.510;2023-01-25T12:36:12;5.20;72.50
39777;DHT22;25453;48.162;14.510;2023-01-25T12:41:11;5.20;72.60
39777;DHT22;25453;48.162;14.510;2023-01-25T12:43:43;5.20;72.50
39777;DHT22;25453;48.162;14.510;2023-01-25T12:46:13;5.30;72.50
39777;DHT22;25453;48.162;14.510;2023-01-25T12:48:42;5.30;72.00
39777;DHT22;25453;48.162;14.510;2023-01-25T12:51:13;5.20;71.80
39777;DHT22;25453;48.162;14.510;2023-01-25T12:53:43;5.20;72.00
39777;DHT22;25453;48.162;14.510;2023-01-25T12:56:31;5.20;72.20
39777;DHT22;25453;48.162;14.510;2023-01-25T12:59:05;5.20;72.30
39777;DHT22;25453;48.162;14.510;2023-01-25T13:01:40;5.30;72.00
39777;DHT22;25453;48.162;14.510;2023-01-25T13:09:32;5.20;71.40
39777;DHT22;25453;48.162;14.510;2023-01-25T13:11:56;5.20;71.60
39777;DHT22;25453;48.162;14.510;2023-01-25T13:17:19;5.20;71.60
39777;DHT22;25453;48.162;14.510;2023-01-25T13:19:41;5.20;71.70
39777;DHT22;25453;48.162;14.510;2023-01-25T13:22:12;5.20;71.80
39777;DHT22;25453;48.162;14.510;2023-01-25T13:25:25;5.20;71.70
39777;DHT22;25453;48.162;14.510;2023-01-25T13:27:32;5.20;71.90
39777;DHT22;25453;48.162;14.510;2023-01-25T13:30:22;5.30;71.90
39777;DHT22;25453;48.162;14.510;2023-01-25T13:40:30;5.40;71.60
39777;DHT22;25453;48.162;14.510;2023-01-25T13:43:01;5.40;71.40
39777;DHT22;25453;48.162;14.510;2023-01-25T13:45:30;5.30;71.50
39777;DHT22;25453;48.162;14.510;2023-01-25T13:50:35;5.40;71.60
39777;DHT22;25453;48.162;14.510;2023-01-25T13:53:16;5.40;71.60
39777;DHT22;25453;48.162;14.510;2023-01-25T13:55:48;5.40;71.40
39777;DHT22;25453;48.162;14.510;2023-01-25T14:00:49;5.40;71.60
39777;DHT22;25453;48.162;14.510;2023-01-25T14:03:17;5.40;71.30
39777;DHT22;25453;48.162;14.510;2023-01-25T14:05:49;5.30;71.40
39777;DHT22;25453;48.162;14.510;2023-01-25T14:08:17;5.30;71.30
39777;DHT22;25453;48.162;14.510;2023-01-25T14:10:45;5.30;71.40
39777;DHT22;25453;48.162;14.510;2023-01-25T14:13:13;5.30;71.50
39777;DHT22;25453;48.162;14.510;2023-01-25T14:15:40;5.30;71.40
39777;DHT22;25453;48.162;14.510;2023-01-25T14:18:17;5.30;71.30
39777;DHT22;25453;48.162;14.510;2023-01-25T14:20:45;5.30;71.40
39777;DHT22;25453;48.162;14.510;2023-01-25T14:23:26;5.30;71.50
39777;DHT22;25453;48.162;14.510;2023-01-25T14:25:53;5.30;71.40
39777;DHT22;25453;48.162;14.510;2023-01-25T14:28:21;5.30;71.50
39777;DHT22;25453;48.162;14.510;2023-01-25T14:30:52;5.30;71.50
39777;DHT22;25453;48.162;14.510;2023-01-25T14:35:48;5.30;71.60
39777;DHT22;25453;48.162;14.510;2023-01-25T14:38:32;5.30;71.40
39777;DHT22;25453;48.162;14.510;2023-01-25T14:43:26;5.30;71.30
39777;DHT22;25453;48.162;14.510;2023-01-25T14:45:54;5.30;71.30
39777;DHT22;25453;48.162;14.510;2023-01-25T14:51:27;5.30;71.50
39777;DHT22;25453;48.162;14.510;2023-01-25T14:53:59;5.30;71.40
39777;DHT22;25453;48.162;14.510;2023-01-25T14:56:28;5.30;71.50
39777;DHT22;25453;48.162;14.510;2023-01-25T14:58:56;5.30;71.60
39777;DHT22;25453;48.162;14.510;2023-01-25T15:01:37;5.30;71.40
39777;DHT22;25453;48.162;14.510;2023-01-25T15:04:08;5.30;71.30
39777;DHT22;25453;48.162;14.510;2023-01-25T15:06:49;5.30;71.20
39777;DHT22;25453;48.162;14.510;2023-01-25T15:09:33;5.20;71.00
39777;DHT22;25453;48.162;14.510;2023-01-25T15:12:05;5.20;71.00
39777;DHT22;25453;48.162;14.510;2023-01-25T15:14:49;5.10;71.10
39777;DHT22;25453;48.162;14.510;2023-01-25T15:23:40;5.20;71.80
39777;DHT22;25453;48.162;14.510;2023-01-25T15:25:48;5.20;71.80
39777;DHT22;25453;48.162;14.510;2023-01-25T15:28:15;5.20;71.90
39777;DHT22;25453;48.162;14.510;2023-01-25T15:30:41;5.20;71.90
39777;DHT22;25453;48.162;14.510;2023-01-25T15:33:16;5.30;72.00
39777;DHT22;25453;48.162;14.510;2023-01-25T15:35:44;5.30;71.90
39777;DHT22;25453;48.162;14.510;2023-01-25T15:38:11;5.30;71.80
39777;DHT22;25453;48.162;14.510;2023-01-25T15:40:38;5.30;71.50
39777;DHT22;25453;48.162;14.510;2023-01-25T15:43:08;5.30;71.50
39777;DHT22;25453;48.162;14.510;2023-01-25T15:45:35;5.30;71.60
39777;DHT22;25453;48.162;14.510;2023-01-25T15:48:02;5.30;71.60
39777;DHT22;25453;48.162;14.510;2023-01-25T15:50:29;5.30;71.70
39777;DHT22;25453;48.162;14.510;2023-01-25T15:52:55;5.30;71.80
39777;DHT22;25453;48.162;14.510;2023-01-25T15:55:22;5.30;71.60
39777;DHT22;25453;48.162;14.510;2023-01-25T15:57:50;5.30;71.50
39777;DHT22;25453;48.162;14.510;2023-01-25T16:00:17;5.20;71.60
39777;DHT22;25453;48.162;14.510;2023-01-25T16:02:46;5.20;71.50
39777;DHT22;25453;48.162;14.510;2023-01-25T16:05:13;5.20;71.50
39777;DHT22;25453;48.162;14.510;2023-01-25T16:07:40;5.20;71.60
39777;DHT22;25453;48.162;14.510;2023-01-25T16:10:18;5.20;71.70
39777;DHT22;25453;48.162;14.510;2023-01-25T16:12:46;5.20;71.60
39777;DHT22;25453;48.162;14.510;2023-01-25T16:15:13;5.10;71.90
39777;DHT22;25453;48.162;14.510;2023-01-25T16:17:40;5.10;72.00
39777;DHT22;25453;48.162;14.510;2023-01-25T16:20:14;5.20;72.10
39777;DHT22;25453;48.162;14.510;2023-01-25T16:22:41;5.20;72.10
39777;DHT22;25453;48.162;14.510;2023-01-25T16:25:08;5.20;72.10
39777;DHT22;25453;48.162;14.510;2023-01-25T16:27:36;5.20;72.00
39777;DHT22;25453;48.162;14.510;2023-01-25T16:30:03;5.20;72.00
39777;DHT22;25453;48.162;14.510;2023-01-25T16:32:31;5.30;72.00
39777;DHT22;25453;48.162;14.510;2023-01-25T16:34:58;5.20;71.90
39777;DHT22;25453;48.162;14.510;2023-01-25T16:37:25;5.30;71.90
39777;DHT22;25453;48.162;14.510;2023-01-25T16:39:52;5.30;72.00
39777;DHT22;25453;48.162;14.510;2023-01-25T16:42:19;5.30;72.00
39777;DHT22;25453;48.162;14.510;2023-01-25T16:44:48;5.30;72.00
39777;DHT22;25453;48.162;14.510;2023-01-25T16:47:15;5.30;71.90
39777;DHT22;25453;48.162;14.510;2023-01-25T16:49:42;5.30;71.70
39777;DHT22;25453;48.162;14.510;2023-01-25T16:52:09;5.30;71.80
39777;DHT22;25453;48.162;14.510;2023-01-25T16:54:37;5.30;71.90
39777;DHT22;25453;48.162;14.510;2023-01-25T16:57:05;5.20;71.90
39777;DHT22;25453;48.162;14.510;2023-01-25T16:59:46;5.20;72.00
39777;DHT22;25453;48.162;14.510;2023-01-25T17:02:13;5.30;72.00
39777;DHT22;25453;48.162;14.510;2023-01-25T17:04:40;5.30;72.00
39777;DHT22;25453;48.162;14.510;2023-01-25T17:07:07;5.30;72.10
39777;DHT22;25453;48.162;14.510;2023-01-25T17:09:36;5.30;72.10
39777;DHT22;25453;48.162;14.510;2023-01-25T17:12:03;5.30;72.10
39777;DHT22;25453;48.162;14.510;2023-01-25T17:14:30;5.30;72.20
39777;DHT22;25453;48.162;14.510;2023-01-25T17:16:59;5.30;72.00
39777;DHT22;25453;48.162;14.510;2023-01-25T17:19:27;5.30;71.80
39777;DHT22;25453;48.162;14.510;2023-01-25T17:21:54;5.30;71.70
39777;DHT22;25453;48.162;14.510;2023-01-25T17:24:24;5.30;71.60
39777;DHT22;25453;48.162;14.510;2023-01-25T17:26:54;5.20;71.80
39777;DHT22;25453;48.162;14.510;2023-01-25T17:29:22;5.20;71.90
39777;DHT22;25453;48.162;14.510;2023-01-25T17:31:49;5.20;72.10
39777;DHT22;25453;48.162;14.510;2023-01-25T17:34:17;5.20;72.10
39777;DHT22;25453;48.162;14.510;2023-01-25T17:36:45;5.20;72.20
39777;DHT22;25453;48.162;14.510;2023-01-25T17:39:12;5.20;72.40
39777;DHT22;25453;48.162;14.510;2023-01-25T17:41:43;5.20;72.40
39777;DHT22;25453;48.162;14.510;2023-01-25T17:44:11;5.20;72.40
39777;DHT22;25453;48.162;14.510;2023-01-25T17:46:38;5.20;72.10
39777;DHT22;25453;48.162;14.510;2023-01-25T17:49:07;5.10;72.10